sensor_id;sensor_type;location;lat;lon;timestamp;pressure;altitude;pressure_sealevel;temperature;humidity
64844;BME280;51310;52.198;5.422;2023-01-01T00:00:11;100442.03;;;13.97;83.63
64844;BME280;51310;52.198;5.422;2023-01-01T00:02:37;100437.50;;;13.94;84.17
64844;BME280;51310;52.198;5.422;2023-01-01T00:05:04;100436.56;;;13.82;85.42
64844;BME280;51310;52.198;5.422;2023-01-01T00:07:30;100432.88;;;13.78;86.09
64844;BME280;51310;52.198;5.422;2023-01-01T00:09:56;100430.22;;;13.66;88.03
64844;BME280;51310;52.198;5.422;2023-01-01T00:12:40;100417.94;;;13.64;87.51
64844;BME280;51310;52.198;5.422;2023-01-01T00:15:06;100445.59;;;13.65;87.08
64844;BME280;51310;52.198;5.422;2023-01-01T00:17:32;100437.66;;;13.73;86.03
64844;BME280;51310;52.198;5.422;2023-01-01T00:19:58;100418.56;;;13.71;85.91
64844;BME280;51310;52.198;5.422;2023-01-01T00:22:23;100424.63;;;13.72;85.33
64844;BME280;51310;52.198;5.422;2023-01-01T00:24:50;100434.84;;;13.70;85.50
64844;BME280;51310;52.198;5.422;2023-01-01T00:27:16;100428.09;;;13.72;85.49
64844;BME280;51310;52.198;5.422;2023-01-01T00:29:42;100431.22;;;13.68;85.56
64844;BME280;51310;52.198;5.422;2023-01-01T00:32:08;100431.38;;;13.70;85.03
64844;BME280;51310;52.198;5.422;2023-01-01T00:34:33;100436.75;;;13.73;84.99
64844;BME280;51310;52.198;5.422;2023-01-01T00:36:59;100405.84;;;13.74;84.69
64844;BME280;51310;52.198;5.422;2023-01-01T00:39:25;100427.97;;;13.71;85.18
64844;BME280;51310;52.198;5.422;2023-01-01T00:41:50;100431.84;;;13.76;84.49
64844;BME280;51310;52.198;5.422;2023-01-01T00:44:16;100443.56;;;13.83;84.10
64844;BME280;51310;52.198;5.422;2023-01-01T00:46:42;100435.53;;;13.80;84.88
64844;BME280;51310;52.198;5.422;2023-01-01T00:49:07;100416.00;;;13.83;84.54
64844;BME280;51310;52.198;5.422;2023-01-01T00:51:33;100438.47;;;13.84;84.23
64844;BME280;51310;52.198;5.422;2023-01-01T00:53:59;100434.81;;;13.92;83.59
64844;BME280;51310;52.198;5.422;2023-01-01T00:56:24;100437.94;;;13.88;84.45
64844;BME280;51310;52.198;5.422;2023-01-01T00:58:50;100426.56;;;13.86;84.11
64844;BME280;51310;52.198;5.422;2023-01-01T01:01:16;100427.25;;;13.84;84.64
64844;BME280;51310;52.198;5.422;2023-01-01T01:03:42;100423.94;;;13.74;84.90
64844;BME280;51310;52.198;5.422;2023-01-01T01:06:11;100420.63;;;13.87;83.24
64844;BME280;51310;52.198;5.422;2023-01-01T01:08:44;100432.00;;;13.89;82.99
64844;BME280;51310;52.198;5.422;2023-01-01T01:11:15;100448.63;;;13.93;82.63
64844;BME280;51310;52.198;5.422;2023-01-01T01:13:44;100436.28;;;13.89;82.65
64844;BME280;51310;52.198;5.422;2023-01-01T01:16:15;100431.31;;;13.92;82.43
64844;BME280;51310;52.198;5.422;2023-01-01T01:18:41;100424.09;;;13.88;82.97
64844;BME280;51310;52.198;5.422;2023-01-01T01:21:07;100437.59;;;13.84;83.20
64844;BME280;51310;52.198;5.422;2023-01-01T01:23:34;100433.22;;;13.83;82.96
64844;BME280;51310;52.198;5.422;2023-01-01T01:26:28;100441.19;;;13.86;82.86
64844;BME280;51310;52.198;5.422;2023-01-01T01:28:55;100457.03;;;13.79;83.46
64844;BME280;51310;52.198;5.422;2023-01-01T01:31:26;100476.03;;;13.79;83.19
64844;BME280;51310;52.198;5.422;2023-01-01T01:33:52;100456.00;;;13.77;83.73
64844;BME280;51310;52.198;5.422;2023-01-01T01:36:18;100476.28;;;13.82;83.72
64844;BME280;51310;52.198;5.422;2023-01-01T01:38:44;100472.28;;;13.75;84.69
64844;BME280;51310;52.198;5.422;2023-01-01T01:41:18;100473.84;;;13.73;84.63
64844;BME280;51310;52.198;5.422;2023-01-01T01:44:00;100481.03;;;13.66;85.61
64844;BME280;51310;52.198;5.422;2023-01-01T01:46:40;100491.25;;;13.64;85.66
64844;BME280;51310;52.198;5.422;2023-01-01T01:49:20;100490.00;;;13.59;86.27
64844;BME280;51310;52.198;5.422;2023-01-01T01:51:50;100483.94;;;13.59;85.97
64844;BME280;51310;52.198;5.422;2023-01-01T01:54:21;100480.72;;;13.51;86.52
64844;BME280;51310;52.198;5.422;2023-01-01T01:56:57;100495.34;;;13.50;86.26
64844;BME280;51310;52.198;5.422;2023-01-01T01:59:29;100513.59;;;13.52;86.32
64844;BME280;51310;52.198;5.422;2023-01-01T02:01:57;100497.31;;;13.43;86.86
64844;BME280;51310;52.198;5.422;2023-01-01T02:04:23;100497.03;;;13.50;86.01
64844;BME280;51310;52.198;5.422;2023-01-01T02:06:50;100505.34;;;13.46;86.05
64844;BME280;51310;52.198;5.422;2023-01-01T02:09:17;100496.78;;;13.47;85.65
64844;BME280;51310;52.198;5.422;2023-01-01T02:11:43;100507.66;;;13.43;86.36
64844;BME280;51310;52.198;5.422;2023-01-01T02:14:08;100513.34;;;13.39;86.07
64844;BME280;51310;52.198;5.422;2023-01-01T02:16:58;100511.88;;;13.30;87.13
64844;BME280;51310;52.198;5.422;2023-01-01T02:20:03;100513.09;;;13.46;85.24
64844;BME280;51310;52.198;5.422;2023-01-01T02:26:14;100521.00;;;13.37;85.61
64844;BME280;51310;52.198;5.422;2023-01-01T02:31:49;100525.88;;;13.44;84.87
64844;BME280;51310;52.198;5.422;2023-01-01T02:34:22;100526.00;;;13.46;84.79
64844;BME280;51310;52.198;5.422;2023-01-01T02:36:54;100523.16;;;13.43;85.58
64844;BME280;51310;52.198;5.422;2023-01-01T02:39:27;100525.66;;;13.41;85.28
64844;BME280;51310;52.198;5.422;2023-01-01T02:41:57;100524.22;;;13.34;85.62
64844;BME280;51310;52.198;5.422;2023-01-01T02:44:26;100520.63;;;13.32;85.59
64844;BME280;51310;52.198;5.422;2023-01-01T02:46:53;100513.34;;;13.39;84.83
64844;BME280;51310;52.198;5.422;2023-01-01T02:49:19;100521.59;;;13.45;84.50
64844;BME280;51310;52.198;5.422;2023-01-01T02:52:35;100526.28;;;13.39;85.48
64844;BME280;51310;52.198;5.422;2023-01-01T02:55:26;100506.25;;;13.36;85.16
64844;BME280;51310;52.198;5.422;2023-01-01T03:01:23;100518.59;;;13.28;85.02
64844;BME280;51310;52.198;5.422;2023-01-01T03:04:25;100526.03;;;13.25;85.55
64844;BME280;51310;52.198;5.422;2023-01-01T03:07:10;100532.66;;;13.22;85.34
64844;BME280;51310;52.198;5.422;2023-01-01T03:10:05;100530.09;;;13.22;86.06
64844;BME280;51310;52.198;5.422;2023-01-01T03:15:49;100543.25;;;13.25;85.91
64844;BME280;51310;52.198;5.422;2023-01-01T03:18:27;100539.75;;;13.24;85.56
64844;BME280;51310;52.198;5.422;2023-01-01T03:21:00;100538.84;;;13.24;85.57
64844;BME280;51310;52.198;5.422;2023-01-01T03:23:35;100553.72;;;13.26;85.45
64844;BME280;51310;52.198;5.422;2023-01-01T03:26:08;100541.06;;;13.29;84.96
64844;BME280;51310;52.198;5.422;2023-01-01T03:28:49;100539.38;;;13.30;84.82
64844;BME280;51310;52.198;5.422;2023-01-01T03:31:23;100558.75;;;13.35;84.49
64844;BME280;51310;52.198;5.422;2023-01-01T03:34:00;100542.59;;;13.27;85.15
64844;BME280;51310;52.198;5.422;2023-01-01T03:36:34;100543.47;;;13.28;85.18
64844;BME280;51310;52.198;5.422;2023-01-01T03:39:20;100554.22;;;13.32;85.01
64844;BME280;51310;52.198;5.422;2023-01-01T03:42:14;100559.88;;;13.39;84.18
64844;BME280;51310;52.198;5.422;2023-01-01T03:44:51;100568.56;;;13.39;84.34
64844;BME280;51310;52.198;5.422;2023-01-01T03:47:19;100561.41;;;13.47;83.83
64844;BME280;51310;52.198;5.422;2023-01-01T03:49:45;100574.09;;;13.44;84.21
64844;BME280;51310;52.198;5.422;2023-01-01T03:53:07;100575.13;;;13.46;84.46
64844;BME280;51310;52.198;5.422;2023-01-01T03:55:52;100581.50;;;13.39;85.60
64844;BME280;51310;52.198;5.422;2023-01-01T03:58:33;100577.75;;;13.36;86.72
64844;BME280;51310;52.198;5.422;2023-01-01T04:01:11;100584.84;;;13.38;87.83
64844;BME280;51310;52.198;5.422;2023-01-01T04:03:40;100582.53;;;13.21;89.91
64844;BME280;51310;52.198;5.422;2023-01-01T04:06:10;100586.16;;;13.12;90.91
64844;BME280;51310;52.198;5.422;2023-01-01T04:08:37;100587.19;;;13.04;91.74
64844;BME280;51310;52.198;5.422;2023-01-01T04:11:17;100600.53;;;13.09;90.13
64844;BME280;51310;52.198;5.422;2023-01-01T04:14:03;100622.09;;;13.09;89.82
64844;BME280;51310;52.198;5.422;2023-01-01T04:16:29;100617.06;;;13.01;89.67
64844;BME280;51310;52.198;5.422;2023-01-01T04:18:54;100619.66;;;13.01;89.90
64844;BME280;51310;52.198;5.422;2023-01-01T04:21:20;100654.13;;;13.01;89.67
64844;BME280;51310;52.198;5.422;2023-01-01T04:23:46;100627.03;;;12.96;90.07
64844;BME280;51310;52.198;5.422;2023-01-01T04:26:13;100598.34;;;12.83;91.68
64844;BME280;51310;52.198;5.422;2023-01-01T04:28:40;100619.91;;;12.73;93.96
64844;BME280;51310;52.198;5.422;2023-01-01T04:31:08;100624.19;;;12.62;94.19
64844;BME280;51310;52.198;5.422;2023-01-01T04:33:34;100609.34;;;12.60;93.12
64844;BME280;51310;52.198;5.422;2023-01-01T04:36:08;100640.28;;;12.49;93.30
64844;BME280;51310;52.198;5.422;2023-01-01T04:38:36;100638.50;;;12.48;93.77
64844;BME280;51310;52.198;5.422;2023-01-01T04:41:03;100624.13;;;12.42;96.21
64844;BME280;51310;52.198;5.422;2023-01-01T04:43:30;100637.94;;;12.32;98.99
64844;BME280;51310;52.198;5.422;2023-01-01T04:46:01;100641.94;;;12.28;100.00
64844;BME280;51310;52.198;5.422;2023-01-01T04:48:29;100665.16;;;12.18;100.00
64844;BME280;51310;52.198;5.422;2023-01-01T04:51:02;100672.34;;;12.12;100.00
64844;BME280;51310;52.198;5.422;2023-01-01T04:53:33;100676.81;;;12.04;100.00
64844;BME280;51310;52.198;5.422;2023-01-01T04:56:04;100679.41;;;12.04;100.00
64844;BME280;51310;52.198;5.422;2023-01-01T04:58:31;100675.22;;;11.96;100.00
64844;BME280;51310;52.198;5.422;2023-01-01T05:00:57;100687.53;;;11.99;100.00
64844;BME280;51310;52.198;5.422;2023-01-01T05:03:23;100686.59;;;11.98;100.00
64844;BME280;51310;52.198;5.422;2023-01-01T05:06:09;100691.25;;;12.02;100.00
64844;BME280;51310;52.198;5.422;2023-01-01T05:08:39;100687.13;;;12.04;99.52
64844;BME280;51310;52.198;5.422;2023-01-01T05:11:18;100683.25;;;11.99;99.16
64844;BME280;51310;52.198;5.422;2023-01-01T05:13:48;100688.97;;;12.05;97.85
64844;BME280;51310;52.198;5.422;2023-01-01T05:16:20;100697.09;;;12.10;97.18
64844;BME280;51310;52.198;5.422;2023-01-01T05:18:47;100695.91;;;12.06;98.25
64844;BME280;51310;52.198;5.422;2023-01-01T05:21:19;100695.53;;;12.02;98.67
64844;BME280;51310;52.198;5.422;2023-01-01T05:23:46;100701.03;;;11.96;99.46
64844;BME280;51310;52.198;5.422;2023-01-01T05:26:18;100708.91;;;11.98;99.81
64844;BME280;51310;52.198;5.422;2023-01-01T05:28:46;100717.53;;;11.98;99.99
64844;BME280;51310;52.198;5.422;2023-01-01T05:31:17;100709.41;;;11.94;99.55
64844;BME280;51310;52.198;5.422;2023-01-01T05:33:43;100698.94;;;11.92;98.25
64844;BME280;51310;52.198;5.422;2023-01-01T05:36:19;100703.09;;;11.90;97.80
64844;BME280;51310;52.198;5.422;2023-01-01T05:38:45;100710.75;;;11.99;96.91
64844;BME280;51310;52.198;5.422;2023-01-01T05:41:14;100728.25;;;11.93;96.94
64844;BME280;51310;52.198;5.422;2023-01-01T05:43:41;100726.72;;;11.95;96.40
64844;BME280;51310;52.198;5.422;2023-01-01T05:46:11;100737.38;;;11.89;96.43
64844;BME280;51310;52.198;5.422;2023-01-01T05:48:37;100726.75;;;11.86;96.47
64844;BME280;51310;52.198;5.422;2023-01-01T05:51:06;100732.47;;;11.92;96.09
64844;BME280;51310;52.198;5.422;2023-01-01T05:53:32;100746.78;;;11.88;95.67
64844;BME280;51310;52.198;5.422;2023-01-01T05:55:59;100737.06;;;11.86;95.67
64844;BME280;51310;52.198;5.422;2023-01-01T05:58:26;100747.38;;;11.86;95.52
64844;BME280;51310;52.198;5.422;2023-01-01T06:00:53;100754.81;;;11.83;95.96
64844;BME280;51310;52.198;5.422;2023-01-01T06:03:18;100751.34;;;11.82;95.54
64844;BME280;51310;52.198;5.422;2023-01-01T06:05:44;100762.31;;;11.80;94.63
64844;BME280;51310;52.198;5.422;2023-01-01T06:08:10;100774.56;;;11.82;93.93
64844;BME280;51310;52.198;5.422;2023-01-01T06:10:36;100766.41;;;11.78;94.24
64844;BME280;51310;52.198;5.422;2023-01-01T06:13:02;100779.88;;;11.84;93.45
64844;BME280;51310;52.198;5.422;2023-01-01T06:15:28;100797.34;;;11.78;93.31
64844;BME280;51310;52.198;5.422;2023-01-01T06:17:54;100795.69;;;11.78;93.38
64844;BME280;51310;52.198;5.422;2023-01-01T06:20:19;100800.00;;;11.69;93.17
64844;BME280;51310;52.198;5.422;2023-01-01T06:22:45;100798.31;;;11.69;92.76
64844;BME280;51310;52.198;5.422;2023-01-01T06:25:11;100818.19;;;11.70;92.62
64844;BME280;51310;52.198;5.422;2023-01-01T06:27:37;100808.63;;;11.69;92.52
64844;BME280;51310;52.198;5.422;2023-01-01T06:30:05;100820.00;;;11.72;92.66
64844;BME280;51310;52.198;5.422;2023-01-01T06:32:31;100816.69;;;11.64;92.64
64844;BME280;51310;52.198;5.422;2023-01-01T06:34:57;100821.84;;;11.64;92.61
64844;BME280;51310;52.198;5.422;2023-01-01T06:37:23;100820.38;;;11.57;92.89
64844;BME280;51310;52.198;5.422;2023-01-01T06:39:49;100824.81;;;11.58;92.67
64844;BME280;51310;52.198;5.422;2023-01-01T06:42:14;100833.28;;;11.57;92.45
64844;BME280;51310;52.198;5.422;2023-01-01T06:44:40;100835.84;;;11.57;92.16
64844;BME280;51310;52.198;5.422;2023-01-01T06:47:06;100842.28;;;11.52;91.82
64844;BME280;51310;52.198;5.422;2023-01-01T06:49:32;100843.94;;;11.52;91.56
64844;BME280;51310;52.198;5.422;2023-01-01T06:51:57;100854.59;;;11.46;92.00
64844;BME280;51310;52.198;5.422;2023-01-01T06:54:23;100854.72;;;11.47;91.75
64844;BME280;51310;52.198;5.422;2023-01-01T06:56:49;100863.09;;;11.45;91.36
64844;BME280;51310;52.198;5.422;2023-01-01T06:59:16;100867.03;;;11.41;91.54
64844;BME280;51310;52.198;5.422;2023-01-01T07:01:42;100866.25;;;11.42;90.98
64844;BME280;51310;52.198;5.422;2023-01-01T07:04:14;100863.88;;;11.35;91.50
64844;BME280;51310;52.198;5.422;2023-01-01T07:06:40;100858.47;;;11.32;91.00
64844;BME280;51310;52.198;5.422;2023-01-01T07:09:08;100868.88;;;11.34;90.77
64844;BME280;51310;52.198;5.422;2023-01-01T07:11:34;100859.50;;;11.34;90.32
64844;BME280;51310;52.198;5.422;2023-01-01T07:14:01;100867.25;;;11.34;90.13
64844;BME280;51310;52.198;5.422;2023-01-01T07:16:27;100875.88;;;11.35;90.04
64844;BME280;51310;52.198;5.422;2023-01-01T07:18:53;100884.06;;;11.31;89.53
64844;BME280;51310;52.198;5.422;2023-01-01T07:21:45;100894.66;;;11.34;89.39
64844;BME280;51310;52.198;5.422;2023-01-01T07:24:14;100912.56;;;11.32;89.34
64844;BME280;51310;52.198;5.422;2023-01-01T07:26:40;100911.53;;;11.30;89.39
64844;BME280;51310;52.198;5.422;2023-01-01T07:29:07;100915.63;;;11.28;89.13
64844;BME280;51310;52.198;5.422;2023-01-01T07:31:40;100924.88;;;11.26;89.41
64844;BME280;51310;52.198;5.422;2023-01-01T07:34:12;100917.19;;;11.17;90.25
64844;BME280;51310;52.198;5.422;2023-01-01T07:36:38;100922.00;;;11.14;89.98
64844;BME280;51310;52.198;5.422;2023-01-01T07:39:04;100929.31;;;11.09;90.30
64844;BME280;51310;52.198;5.422;2023-01-01T07:41:30;100952.50;;;11.01;90.78
64844;BME280;51310;52.198;5.422;2023-01-01T07:43:55;100960.56;;;11.04;90.48
64844;BME280;51310;52.198;5.422;2023-01-01T07:46:21;100971.31;;;11.00;91.16
64844;BME280;51310;52.198;5.422;2023-01-01T07:48:47;100989.31;;;11.08;90.76
64844;BME280;51310;52.198;5.422;2023-01-01T07:51:12;100979.16;;;11.01;91.26
64844;BME280;51310;52.198;5.422;2023-01-01T07:53:38;100981.31;;;10.97;92.16
64844;BME280;51310;52.198;5.422;2023-01-01T07:56:04;100986.00;;;10.92;92.54
64844;BME280;51310;52.198;5.422;2023-01-01T07:58:30;100996.75;;;10.88;92.80
64844;BME280;51310;52.198;5.422;2023-01-01T08:00:56;100993.28;;;10.79;93.76
64844;BME280;51310;52.198;5.422;2023-01-01T08:03:21;100991.00;;;10.73;93.97
64844;BME280;51310;52.198;5.422;2023-01-01T08:05:47;101001.81;;;10.69;94.53
64844;BME280;51310;52.198;5.422;2023-01-01T08:08:13;101009.97;;;10.65;95.30
64844;BME280;51310;52.198;5.422;2023-01-01T08:10:39;101009.53;;;10.69;94.57
64844;BME280;51310;52.198;5.422;2023-01-01T08:13:07;101021.91;;;10.64;95.14
64844;BME280;51310;52.198;5.422;2023-01-01T08:15:33;101026.75;;;10.61;95.04
64844;BME280;51310;52.198;5.422;2023-01-01T08:18:02;101032.38;;;10.57;94.91
64844;BME280;51310;52.198;5.422;2023-01-01T08:20:30;101035.84;;;10.58;94.98
64844;BME280;51310;52.198;5.422;2023-01-01T08:22:56;101055.38;;;10.56;95.27
64844;BME280;51310;52.198;5.422;2023-01-01T08:25:22;101053.72;;;10.48;95.59
64844;BME280;51310;52.198;5.422;2023-01-01T08:27:48;101057.94;;;10.47;95.57
64844;BME280;51310;52.198;5.422;2023-01-01T08:30:15;101050.81;;;10.44;95.57
64844;BME280;51310;52.198;5.422;2023-01-01T08:32:41;101043.41;;;10.39;96.03
64844;BME280;51310;52.198;5.422;2023-01-01T08:35:07;101049.59;;;10.41;95.53
64844;BME280;51310;52.198;5.422;2023-01-01T08:37:33;101048.69;;;10.40;95.56
64844;BME280;51310;52.198;5.422;2023-01-01T08:39:59;101050.66;;;10.43;95.24
64844;BME280;51310;52.198;5.422;2023-01-01T08:42:25;101051.69;;;10.36;95.75
64844;BME280;51310;52.198;5.422;2023-01-01T08:44:50;101043.97;;;10.36;95.55
64844;BME280;51310;52.198;5.422;2023-01-01T08:47:25;101048.56;;;10.39;95.53
64844;BME280;51310;52.198;5.422;2023-01-01T08:49:52;101047.31;;;10.35;95.96
64844;BME280;51310;52.198;5.422;2023-01-01T08:52:18;101047.63;;;10.38;96.01
64844;BME280;51310;52.198;5.422;2023-01-01T08:54:44;101047.63;;;10.38;95.90
64844;BME280;51310;52.198;5.422;2023-01-01T08:57:11;101053.69;;;10.39;95.79
64844;BME280;51310;52.198;5.422;2023-01-01T08:59:37;101058.84;;;10.39;95.87
64844;BME280;51310;52.198;5.422;2023-01-01T09:02:03;101080.34;;;10.39;95.44
64844;BME280;51310;52.198;5.422;2023-01-01T09:04:30;101083.97;;;10.41;95.70
64844;BME280;51310;52.198;5.422;2023-01-01T09:06:56;101080.03;;;10.45;95.69
64844;BME280;51310;52.198;5.422;2023-01-01T09:09:22;101072.91;;;10.42;96.13
64844;BME280;51310;52.198;5.422;2023-01-01T09:11:53;101083.97;;;10.41;96.58
64844;BME280;51310;52.198;5.422;2023-01-01T09:14:20;101086.09;;;10.37;96.69
64844;BME280;51310;52.198;5.422;2023-01-01T09:16:46;101096.50;;;10.38;97.10
64844;BME280;51310;52.198;5.422;2023-01-01T09:19:12;101089.56;;;10.37;97.66
64844;BME280;51310;52.198;5.422;2023-01-01T09:21:38;101102.72;;;10.40;97.47
64844;BME280;51310;52.198;5.422;2023-01-01T09:24:03;101100.31;;;10.42;97.39
64844;BME280;51310;52.198;5.422;2023-01-01T09:26:29;101095.63;;;10.46;97.05
64844;BME280;51310;52.198;5.422;2023-01-01T09:28:56;101097.59;;;10.49;97.19
64844;BME280;51310;52.198;5.422;2023-01-01T09:31:22;101082.31;;;10.51;97.65
64844;BME280;51310;52.198;5.422;2023-01-01T09:33:48;101090.81;;;10.58;97.11
64844;BME280;51310;52.198;5.422;2023-01-01T09:38:51;101100.34;;;10.59;97.45
64844;BME280;51310;52.198;5.422;2023-01-01T09:41:44;101094.91;;;10.65;97.29
64844;BME280;51310;52.198;5.422;2023-01-01T09:44:44;101100.38;;;10.77;97.19
64844;BME280;51310;52.198;5.422;2023-01-01T09:49:53;101094.31;;;10.85;96.20
64844;BME280;51310;52.198;5.422;2023-01-01T09:52:21;101090.84;;;10.93;96.07
64844;BME280;51310;52.198;5.422;2023-01-01T09:55:03;101091.59;;;11.01;95.50
64844;BME280;51310;52.198;5.422;2023-01-01T09:57:31;101108.09;;;11.03;96.04
64844;BME280;51310;52.198;5.422;2023-01-01T09:59:58;101110.53;;;11.01;96.09
64844;BME280;51310;52.198;5.422;2023-01-01T10:05:53;101132.50;;;11.24;94.80
64844;BME280;51310;52.198;5.422;2023-01-01T10:14:32;101130.69;;;11.40;94.33
64844;BME280;51310;52.198;5.422;2023-01-01T10:17:03;101127.63;;;11.44;94.48
64844;BME280;51310;52.198;5.422;2023-01-01T10:19:44;101134.28;;;11.51;94.21
64844;BME280;51310;52.198;5.422;2023-01-01T10:22:32;101140.66;;;11.46;94.76
64844;BME280;51310;52.198;5.422;2023-01-01T10:25:20;101129.13;;;11.51;94.48
64844;BME280;51310;52.198;5.422;2023-01-01T10:28:26;101118.97;;;11.53;94.43
64844;BME280;51310;52.198;5.422;2023-01-01T10:31:54;101103.69;;;11.37;96.16
64844;BME280;51310;52.198;5.422;2023-01-01T10:34:25;101106.56;;;11.31;96.83
64844;BME280;51310;52.198;5.422;2023-01-01T10:36:57;101101.88;;;11.27;97.76
64844;BME280;51310;52.198;5.422;2023-01-01T10:39:24;101094.47;;;11.30;97.81
64844;BME280;51310;52.198;5.422;2023-01-01T10:41:50;101080.06;;;11.32;98.42
64844;BME280;51310;52.198;5.422;2023-01-01T10:44:36;101085.81;;;11.38;98.67
64844;BME280;51310;52.198;5.422;2023-01-01T10:50:04;101071.69;;;11.43;99.30
64844;BME280;51310;52.198;5.422;2023-01-01T10:52:40;101085.47;;;11.53;99.19
64844;BME280;51310;52.198;5.422;2023-01-01T10:55:18;101097.28;;;11.59;99.42
64844;BME280;51310;52.198;5.422;2023-01-01T10:57:45;101123.22;;;11.61;98.99
64844;BME280;51310;52.198;5.422;2023-01-01T11:00:27;101127.75;;;11.63;98.81
64844;BME280;51310;52.198;5.422;2023-01-01T11:03:18;101122.78;;;11.56;98.44
64844;BME280;51310;52.198;5.422;2023-01-01T11:08:29;101137.59;;;11.67;98.85
64844;BME280;51310;52.198;5.422;2023-01-01T11:11:01;101147.91;;;11.67;99.21
64844;BME280;51310;52.198;5.422;2023-01-01T11:13:28;101160.03;;;11.77;99.06
64844;BME280;51310;52.198;5.422;2023-01-01T11:15:55;101154.72;;;11.76;99.49
64844;BME280;51310;52.198;5.422;2023-01-01T11:18:28;101143.06;;;11.79;99.75
64844;BME280;51310;52.198;5.422;2023-01-01T11:21:02;101148.22;;;11.79;100.00
64844;BME280;51310;52.198;5.422;2023-01-01T11:23:38;101150.16;;;11.82;100.00
64844;BME280;51310;52.198;5.422;2023-01-01T11:29:24;101149.75;;;11.68;100.00
64844;BME280;51310;52.198;5.422;2023-01-01T11:31:50;101139.47;;;11.60;100.00
64844;BME280;51310;52.198;5.422;2023-01-01T11:34:38;101151.75;;;11.54;100.00
64844;BME280;51310;52.198;5.422;2023-01-01T11:37:31;101159.59;;;11.55;100.00
64844;BME280;51310;52.198;5.422;2023-01-01T11:40:00;101155.22;;;11.45;100.00
64844;BME280;51310;52.198;5.422;2023-01-01T11:42:31;101149.19;;;11.36;100.00
64844;BME280;51310;52.198;5.422;2023-01-01T11:47:40;101136.13;;;11.43;100.00
64844;BME280;51310;52.198;5.422;2023-01-01T11:50:33;101134.28;;;11.42;100.00
64844;BME280;51310;52.198;5.422;2023-01-01T11:53:31;101143.06;;;11.53;100.00
64844;BME280;51310;52.198;5.422;2023-01-01T12:01:16;101137.34;;;11.47;100.00
64844;BME280;51310;52.198;5.422;2023-01-01T12:06:48;101150.97;;;11.46;100.00
64844;BME280;51310;52.198;5.422;2023-01-01T12:09:54;101155.53;;;11.48;100.00
64844;BME280;51310;52.198;5.422;2023-01-01T12:12:40;101160.84;;;11.50;100.00
64844;BME280;51310;52.198;5.422;2023-01-01T12:15:46;101155.38;;;11.56;100.00
64844;BME280;51310;52.198;5.422;2023-01-01T12:18:38;101171.75;;;11.56;100.00
64844;BME280;51310;52.198;5.422;2023-01-01T12:23:40;101155.22;;;11.54;100.00
64844;BME280;51310;52.198;5.422;2023-01-01T12:31:50;101146.13;;;11.66;100.00
64844;BME280;51310;52.198;5.422;2023-01-01T12:34:50;101153.69;;;11.65;100.00
64844;BME280;51310;52.198;5.422;2023-01-01T12:38:15;101165.06;;;11.67;100.00
64844;BME280;51310;52.198;5.422;2023-01-01T12:41:15;101149.13;;;11.80;100.00
64844;BME280;51310;52.198;5.422;2023-01-01T12:47:35;101158.53;;;11.79;100.00
64844;BME280;51310;52.198;5.422;2023-01-01T12:56:53;101151.53;;;11.78;100.00
64844;BME280;51310;52.198;5.422;2023-01-01T12:59:31;101160.94;;;11.95;100.00
64844;BME280;51310;52.198;5.422;2023-01-01T13:02:02;101158.19;;;11.85;100.00
64844;BME280;51310;52.198;5.422;2023-01-01T13:04:36;101162.91;;;11.80;100.00
64844;BME280;51310;52.198;5.422;2023-01-01T13:07:10;101167.03;;;11.69;100.00
64844;BME280;51310;52.198;5.422;2023-01-01T13:09:43;101168.84;;;11.70;100.00
64844;BME280;51310;52.198;5.422;2023-01-01T13:12:19;101167.19;;;11.71;100.00
64844;BME280;51310;52.198;5.422;2023-01-01T13:14:47;101169.31;;;11.75;100.00
64844;BME280;51310;52.198;5.422;2023-01-01T13:17:25;101172.00;;;11.77;100.00
64844;BME280;51310;52.198;5.422;2023-01-01T13:19:59;101160.78;;;11.76;100.00
64844;BME280;51310;52.198;5.422;2023-01-01T13:22:40;101162.47;;;11.76;100.00
64844;BME280;51310;52.198;5.422;2023-01-01T13:38:57;101165.06;;;11.67;99.96
64844;BME280;51310;52.198;5.422;2023-01-01T13:52:42;101159.28;;;11.69;99.64
64844;BME280;51310;52.198;5.422;2023-01-01T14:03:41;101174.03;;;11.70;100.00
64844;BME280;51310;52.198;5.422;2023-01-01T14:06:34;101175.53;;;11.68;100.00
64844;BME280;51310;52.198;5.422;2023-01-01T14:09:21;101174.78;;;11.61;100.00
64844;BME280;51310;52.198;5.422;2023-01-01T14:11:47;101174.16;;;11.55;100.00
64844;BME280;51310;52.198;5.422;2023-01-01T14:14:28;101176.44;;;11.60;100.00
64844;BME280;51310;52.198;5.422;2023-01-01T14:17:01;101176.91;;;11.56;100.00
64844;BME280;51310;52.198;5.422;2023-01-01T14:19:31;101179.78;;;11.50;100.00
64844;BME280;51310;52.198;5.422;2023-01-01T14:21:58;101183.41;;;11.53;100.00
64844;BME280;51310;52.198;5.422;2023-01-01T14:24:25;101183.88;;;11.48;100.00
64844;BME280;51310;52.198;5.422;2023-01-01T14:26:53;101181.63;;;11.52;100.00
64844;BME280;51310;52.198;5.422;2023-01-01T14:29:28;101171.91;;;11.49;100.00
64844;BME280;51310;52.198;5.422;2023-01-01T14:31:58;101174.78;;;11.43;100.00
64844;BME280;51310;52.198;5.422;2023-01-01T14:34:30;101173.56;;;11.48;100.00
64844;BME280;51310;52.198;5.422;2023-01-01T14:36:59;101165.22;;;11.42;100.00
64844;BME280;51310;52.198;5.422;2023-01-01T14:39:34;101163.13;;;11.47;100.00
64844;BME280;51310;52.198;5.422;2023-01-01T14:42:03;101178.28;;;11.44;100.00
64844;BME280;51310;52.198;5.422;2023-01-01T14:44:40;101184.31;;;11.44;100.00
64844;BME280;51310;52.198;5.422;2023-01-01T14:47:32;101185.25;;;11.45;100.00
64844;BME280;51310;52.198;5.422;2023-01-01T14:52:33;101182.97;;;11.48;100.00
64844;BME280;51310;52.198;5.422;2023-01-01T14:55:02;101172.06;;;11.42;100.00